Hauptseite
METAR-TAF:

METAR-TAF

Flughäfen :

Perugia, Italien

Flughafen Perugia

Breite: 43-05N, Länge: 012-30E, Höhe: 208 m

Beobachtung

Neuester Wetterbericht von vor 3 Stunden und 30 Minuten, um 21:50 UTC
Wind 12 kt aus Nord
Temperatur 7°C
Luftfeuchtigkeit 81%
Luftdruck 1008 hPa
Sichtweite 10 km oder mehr
Durchbrochene Bewölkung in der Höhe von 4000 ft

METAR: LIRZ 242150Z 01012KT 9999 BKN040 07/04 Q1008

Zeit: 02:20 (01:20 UTC)

Prognose

Neuester Wetterbericht von vor 8 Stunden und 20 Minuten, um 17:00 UTC
Gültige Prognose vom 24 um 18 UTC bis 25 um 18 UTC
Wind 15 kt aus Nord/Nordost
Sichtweite: 7000 m
Aufgelockert bewölkt in der Höhe von 3000 ft
Zeitweise
vom 25 um 00 UTC bis 25 um 12 UTC
Sichtweite: 4000 m
Regen
Zeitweise
vom 25 um 12 UTC bis 25 um 18 UTC
Sichtweite: 3000 m
Schnee

TAF: LIRZ 241700Z 2418/2518 02015KT 7000 SCT030 TEMPO 2500/2512 4000 RA TEMPO 2512/2518 3000 SN

Wetterbeobachtungen und Prognosen von mehr als 4000 Flughäfen (METAR und TAF Bericht).

Die verfügbaren Stationen werden durch gelbe und rote Markierungen auf der Karte dargestellt.

Führen Sie die Maus auf sie, um den Namen der Station zu sehen.

Darauf klicken, um die Beobachtung von Wetterbeobachtungen und Prognosen zu sehen.

Um die Karte zu ändern : klicken Sie auf den grünen Tasten mit einem schwarzen Kreuz Zum Vergrößern, auf den grünen Button mit einem Gedankenstrich zu verkleinern, oder auf die grünen Pfeile für benachbarte Karten.


METAR-TAF: